Port Carbon, Pennsylvania
Current Conditions -  °F | °C
As of 7:35 PM on Tuesday 25 Nov 2014 (Local Time) from KHZL Reporting Station
Clear Clear  
Wind Chill: 41°   Ceiling: Unl
Heat Index: 41°   Visibility: 10mi
Dew Point: 28°   Wind: 0mph
Humidity: 61%   Direction: NA
Pressure: 30.1"   Gusts: NA
Location:  40.7°N, 76.17°W
Report Text: KHZL 260035Z AUTO 00000KT 10SM CLR 05/M02 A3010 RMK AO2
Loading
Personal Weather Stations






























Interactive Weather Map New forecast layout! Learn more

10-Day Weather Forecast

Advertisements
Track Severe Weather on mobile